sensor_id;sensor_type;location;lat;lon;timestamp;temperature;humidity
78315;SHT31;68596;52.080;4.662;2023-12-04T00:01:54;4.97;71.73
78315;SHT31;68596;52.080;4.662;2023-12-04T00:04:38;4.98;71.43
78315;SHT31;68596;52.080;4.662;2023-12-04T00:07:22;4.94;71.46
78315;SHT31;68596;52.080;4.662;2023-12-04T00:10:06;4.98;71.49
78315;SHT31;68596;52.080;4.662;2023-12-04T00:12:52;4.94;71.80
78315;SHT31;68596;52.080;4.662;2023-12-04T00:15:36;5.04;71.56
78315;SHT31;68596;52.080;4.662;2023-12-04T00:18:20;5.11;71.57
78315;SHT31;68596;52.080;4.662;2023-12-04T00:21:04;5.07;71.62
78315;SHT31;68596;52.080;4.662;2023-12-04T00:23:49;5.08;71.57
78315;SHT31;68596;52.080;4.662;2023-12-04T00:26:33;5.07;71.58
78315;SHT31;68596;52.080;4.662;2023-12-04T00:29:17;5.04;71.61
78315;SHT31;68596;52.080;4.662;2023-12-04T00:32:01;5.06;71.86
78315;SHT31;68596;52.080;4.662;2023-12-04T00:34:45;4.91;71.87
78315;SHT31;68596;52.080;4.662;2023-12-04T00:37:29;5.00;72.42
78315;SHT31;68596;52.080;4.662;2023-12-04T00:40:13;5.08;71.97
78315;SHT31;68596;52.080;4.662;2023-12-04T00:42:57;5.03;71.51
78315;SHT31;68596;52.080;4.662;2023-12-04T00:45:41;5.00;71.86
78315;SHT31;68596;52.080;4.662;2023-12-04T00:48:25;4.97;72.34
78315;SHT31;68596;52.080;4.662;2023-12-04T00:51:09;4.89;72.02
78315;SHT31;68596;52.080;4.662;2023-12-04T00:53:54;5.04;72.86
78315;SHT31;68596;52.080;4.662;2023-12-04T00:56:38;5.03;72.00
78315;SHT31;68596;52.080;4.662;2023-12-04T00:59:23;5.13;71.76
78315;SHT31;68596;52.080;4.662;2023-12-04T01:02:07;5.18;71.77
78315;SHT31;68596;52.080;4.662;2023-12-04T01:04:51;5.23;71.41
78315;SHT31;68596;52.080;4.662;2023-12-04T01:07:35;5.26;71.25
78315;SHT31;68596;52.080;4.662;2023-12-04T01:10:19;5.24;71.45
78315;SHT31;68596;52.080;4.662;2023-12-04T01:13:03;5.27;71.88
78315;SHT31;68596;52.080;4.662;2023-12-04T01:15:47;5.27;71.32
78315;SHT31;68596;52.080;4.662;2023-12-04T01:18:32;5.28;71.29
78315;SHT31;68596;52.080;4.662;2023-12-04T01:21:16;5.27;71.31
78315;SHT31;68596;52.080;4.662;2023-12-04T01:24:00;5.32;71.14
78315;SHT31;68596;52.080;4.662;2023-12-04T01:26:44;5.30;70.92
78315;SHT31;68596;52.080;4.662;2023-12-04T01:29:28;5.28;71.05
78315;SHT31;68596;52.080;4.662;2023-12-04T01:32:12;4.97;71.39
78315;SHT31;68596;52.080;4.662;2023-12-04T01:34:56;4.76;72.59
78315;SHT31;68596;52.080;4.662;2023-12-04T01:37:40;4.77;72.61
78315;SHT31;68596;52.080;4.662;2023-12-04T01:40:26;4.69;72.56
78315;SHT31;68596;52.080;4.662;2023-12-04T01:43:10;4.69;72.93
78315;SHT31;68596;52.080;4.662;2023-12-04T01:45:55;4.70;73.06
78315;SHT31;68596;52.080;4.662;2023-12-04T01:48:39;4.93;72.50
78315;SHT31;68596;52.080;4.662;2023-12-04T01:51:26;5.11;71.91
78315;SHT31;68596;52.080;4.662;2023-12-04T01:54:12;5.07;70.62
78315;SHT31;68596;52.080;4.662;2023-12-04T01:56:57;5.13;71.52
78315;SHT31;68596;52.080;4.662;2023-12-04T01:59:42;5.07;70.60
78315;SHT31;68596;52.080;4.662;2023-12-04T02:02:28;5.07;71.33
78315;SHT31;68596;52.080;4.662;2023-12-04T02:05:14;5.11;71.37
78315;SHT31;68596;52.080;4.662;2023-12-04T02:07:59;5.11;71.13
78315;SHT31;68596;52.080;4.662;2023-12-04T02:10:44;5.18;71.22
78315;SHT31;68596;52.080;4.662;2023-12-04T02:13:29;5.26;71.55
78315;SHT31;68596;52.080;4.662;2023-12-04T02:16:15;5.31;70.65
78315;SHT31;68596;52.080;4.662;2023-12-04T02:19:00;5.16;70.48
78315;SHT31;68596;52.080;4.662;2023-12-04T02:21:44;5.00;71.04
78315;SHT31;68596;52.080;4.662;2023-12-04T02:24:28;4.89;71.50
78315;SHT31;68596;52.080;4.662;2023-12-04T02:27:22;4.93;71.54
78315;SHT31;68596;52.080;4.662;2023-12-04T02:30:11;4.89;71.37
78315;SHT31;68596;52.080;4.662;2023-12-04T02:32:59;4.73;71.19
78315;SHT31;68596;52.080;4.662;2023-12-04T02:35:46;4.80;71.20
78315;SHT31;68596;52.080;4.662;2023-12-04T02:38:32;4.87;71.09
78315;SHT31;68596;52.080;4.662;2023-12-04T02:41:16;4.93;70.71
78315;SHT31;68596;52.080;4.662;2023-12-04T02:44:01;4.80;70.98
78315;SHT31;68596;52.080;4.662;2023-12-04T02:46:45;4.87;70.72
78315;SHT31;68596;52.080;4.662;2023-12-04T02:49:29;4.89;71.03
78315;SHT31;68596;52.080;4.662;2023-12-04T02:52:13;5.01;70.63
78315;SHT31;68596;52.080;4.662;2023-12-04T02:54:57;4.83;70.50
78315;SHT31;68596;52.080;4.662;2023-12-04T02:57:41;4.80;71.13
78315;SHT31;68596;52.080;4.662;2023-12-04T03:00:25;4.87;70.78
78315;SHT31;68596;52.080;4.662;2023-12-04T03:03:10;4.97;70.91
78315;SHT31;68596;52.080;4.662;2023-12-04T03:05:54;4.90;70.95
78315;SHT31;68596;52.080;4.662;2023-12-04T03:08:38;4.86;70.66
78315;SHT31;68596;52.080;4.662;2023-12-04T03:11:22;4.72;70.45
78315;SHT31;68596;52.080;4.662;2023-12-04T03:14:06;4.73;70.86
78315;SHT31;68596;52.080;4.662;2023-12-04T03:16:51;4.65;70.35
78315;SHT31;68596;52.080;4.662;2023-12-04T03:19:36;4.62;70.27
78315;SHT31;68596;52.080;4.662;2023-12-04T03:22:20;4.53;70.81
78315;SHT31;68596;52.080;4.662;2023-12-04T03:25:04;4.49;71.02
78315;SHT31;68596;52.080;4.662;2023-12-04T03:27:48;4.67;71.54
78315;SHT31;68596;52.080;4.662;2023-12-04T03:30:32;4.66;70.28
78315;SHT31;68596;52.080;4.662;2023-12-04T03:33:16;4.63;70.10
78315;SHT31;68596;52.080;4.662;2023-12-04T03:36:00;4.63;70.68
78315;SHT31;68596;52.080;4.662;2023-12-04T03:38:44;4.67;70.73
78315;SHT31;68596;52.080;4.662;2023-12-04T03:41:28;4.56;70.84
78315;SHT31;68596;52.080;4.662;2023-12-04T03:44:13;4.44;70.65
78315;SHT31;68596;52.080;4.662;2023-12-04T03:46:57;4.52;70.66
78315;SHT31;68596;52.080;4.662;2023-12-04T03:49:41;4.42;70.39
78315;SHT31;68596;52.080;4.662;2023-12-04T03:52:25;4.59;70.73
78315;SHT31;68596;52.080;4.662;2023-12-04T03:55:09;4.62;69.54
78315;SHT31;68596;52.080;4.662;2023-12-04T03:57:54;4.55;70.22
78315;SHT31;68596;52.080;4.662;2023-12-04T04:00:38;4.65;70.32
78315;SHT31;68596;52.080;4.662;2023-12-04T04:03:24;4.77;70.23
78315;SHT31;68596;52.080;4.662;2023-12-04T04:06:09;4.79;69.84
78315;SHT31;68596;52.080;4.662;2023-12-04T04:08:53;4.65;69.26
78315;SHT31;68596;52.080;4.662;2023-12-04T04:11:37;4.65;69.65
78315;SHT31;68596;52.080;4.662;2023-12-04T04:14:22;4.65;69.79
78315;SHT31;68596;52.080;4.662;2023-12-04T04:17:08;4.57;69.67
78315;SHT31;68596;52.080;4.662;2023-12-04T04:19:52;4.66;70.17
78315;SHT31;68596;52.080;4.662;2023-12-04T04:22:37;4.57;69.77
78315;SHT31;68596;52.080;4.662;2023-12-04T04:25:22;4.59;69.40
78315;SHT31;68596;52.080;4.662;2023-12-04T04:28:08;4.53;69.49
78315;SHT31;68596;52.080;4.662;2023-12-04T04:30:52;4.48;68.78
78315;SHT31;68596;52.080;4.662;2023-12-04T04:33:36;4.36;69.19
78315;SHT31;68596;52.080;4.662;2023-12-04T04:36:20;4.41;69.52
78315;SHT31;68596;52.080;4.662;2023-12-04T04:39:04;4.45;69.49
78315;SHT31;68596;52.080;4.662;2023-12-04T04:41:50;4.53;69.30
78315;SHT31;68596;52.080;4.662;2023-12-04T04:44:34;4.59;68.79
78315;SHT31;68596;52.080;4.662;2023-12-04T04:47:18;4.69;69.59
78315;SHT31;68596;52.080;4.662;2023-12-04T04:50:02;4.67;68.33
78315;SHT31;68596;52.080;4.662;2023-12-04T04:52:47;4.60;69.01
78315;SHT31;68596;52.080;4.662;2023-12-04T04:55:31;4.57;68.99
78315;SHT31;68596;52.080;4.662;2023-12-04T04:58:16;4.49;69.16
78315;SHT31;68596;52.080;4.662;2023-12-04T05:01:04;4.48;69.01
78315;SHT31;68596;52.080;4.662;2023-12-04T05:03:48;4.35;68.79
78315;SHT31;68596;52.080;4.662;2023-12-04T05:06:32;4.24;69.99
78315;SHT31;68596;52.080;4.662;2023-12-04T05:09:16;4.28;69.56
78315;SHT31;68596;52.080;4.662;2023-12-04T05:12:00;4.36;69.55
78315;SHT31;68596;52.080;4.662;2023-12-04T05:14:44;4.46;69.65
78315;SHT31;68596;52.080;4.662;2023-12-04T05:17:28;4.42;69.54
78315;SHT31;68596;52.080;4.662;2023-12-04T05:20:13;4.25;69.21
78315;SHT31;68596;52.080;4.662;2023-12-04T05:22:57;4.21;69.80
78315;SHT31;68596;52.080;4.662;2023-12-04T05:25:41;4.32;70.02
78315;SHT31;68596;52.080;4.662;2023-12-04T05:28:25;4.35;69.28
78315;SHT31;68596;52.080;4.662;2023-12-04T05:31:09;4.14;69.23
78315;SHT31;68596;52.080;4.662;2023-12-04T05:33:53;4.14;70.27
78315;SHT31;68596;52.080;4.662;2023-12-04T05:36:37;4.28;69.86
78315;SHT31;68596;52.080;4.662;2023-12-04T05:39:22;4.21;69.93
78315;SHT31;68596;52.080;4.662;2023-12-04T05:42:06;4.29;70.13
78315;SHT31;68596;52.080;4.662;2023-12-04T05:44:52;4.35;69.72
78315;SHT31;68596;52.080;4.662;2023-12-04T05:47:39;4.36;69.85
78315;SHT31;68596;52.080;4.662;2023-12-04T05:50:23;4.41;69.51
78315;SHT31;68596;52.080;4.662;2023-12-04T05:53:07;4.39;69.76
78315;SHT31;68596;52.080;4.662;2023-12-04T05:55:52;4.46;70.17
78315;SHT31;68596;52.080;4.662;2023-12-04T05:58:36;4.46;70.01
78315;SHT31;68596;52.080;4.662;2023-12-04T06:01:20;4.53;70.05
78315;SHT31;68596;52.080;4.662;2023-12-04T06:04:04;4.56;69.75
78315;SHT31;68596;52.080;4.662;2023-12-04T06:06:49;4.52;69.63
78315;SHT31;68596;52.080;4.662;2023-12-04T06:09:33;4.52;69.93
78315;SHT31;68596;52.080;4.662;2023-12-04T06:12:17;4.48;70.10
78315;SHT31;68596;52.080;4.662;2023-12-04T06:15:02;4.35;70.16
78315;SHT31;68596;52.080;4.662;2023-12-04T06:17:46;4.35;70.51
78315;SHT31;68596;52.080;4.662;2023-12-04T06:20:30;4.41;70.43
78315;SHT31;68596;52.080;4.662;2023-12-04T06:23:15;4.42;70.34
78315;SHT31;68596;52.080;4.662;2023-12-04T06:25:59;4.24;70.76
78315;SHT31;68596;52.080;4.662;2023-12-04T06:28:44;4.06;71.40
78315;SHT31;68596;52.080;4.662;2023-12-04T06:31:29;4.26;71.13
78315;SHT31;68596;52.080;4.662;2023-12-04T06:34:13;4.18;71.14
78315;SHT31;68596;52.080;4.662;2023-12-04T06:36:59;4.14;71.21
78315;SHT31;68596;52.080;4.662;2023-12-04T06:39:45;4.12;71.66
78315;SHT31;68596;52.080;4.662;2023-12-04T06:42:29;3.94;72.07
78315;SHT31;68596;52.080;4.662;2023-12-04T06:45:14;3.85;72.52
78315;SHT31;68596;52.080;4.662;2023-12-04T06:47:59;4.04;72.37
78315;SHT31;68596;52.080;4.662;2023-12-04T06:50:43;4.28;71.72
78315;SHT31;68596;52.080;4.662;2023-12-04T06:53:27;4.38;71.10
78315;SHT31;68596;52.080;4.662;2023-12-04T06:56:11;4.32;71.13
78315;SHT31;68596;52.080;4.662;2023-12-04T06:58:58;4.29;71.22
78315;SHT31;68596;52.080;4.662;2023-12-04T07:01:42;4.18;71.42
78315;SHT31;68596;52.080;4.662;2023-12-04T07:04:26;4.24;71.35
78315;SHT31;68596;52.080;4.662;2023-12-04T07:07:10;4.32;71.34
78315;SHT31;68596;52.080;4.662;2023-12-04T07:09:56;4.41;71.17
78315;SHT31;68596;52.080;4.662;2023-12-04T07:12:41;4.55;71.12
78315;SHT31;68596;52.080;4.662;2023-12-04T07:15:26;4.38;70.93
78315;SHT31;68596;52.080;4.662;2023-12-04T07:18:10;4.36;70.81
78315;SHT31;68596;52.080;4.662;2023-12-04T07:20:54;4.19;70.99
78315;SHT31;68596;52.080;4.662;2023-12-04T07:23:38;4.25;71.53
78315;SHT31;68596;52.080;4.662;2023-12-04T07:26:22;4.38;70.91
78315;SHT31;68596;52.080;4.662;2023-12-04T07:29:06;4.45;70.58
78315;SHT31;68596;52.080;4.662;2023-12-04T07:31:52;4.46;70.46
78315;SHT31;68596;52.080;4.662;2023-12-04T07:34:36;4.52;70.23
78315;SHT31;68596;52.080;4.662;2023-12-04T07:37:21;4.63;70.12
78315;SHT31;68596;52.080;4.662;2023-12-04T07:40:07;4.55;69.39
78315;SHT31;68596;52.080;4.662;2023-12-04T07:42:52;4.50;69.77
78315;SHT31;68596;52.080;4.662;2023-12-04T07:45:36;4.21;69.98
78315;SHT31;68596;52.080;4.662;2023-12-04T07:48:20;4.02;70.52
78315;SHT31;68596;52.080;4.662;2023-12-04T07:51:04;4.06;71.42
78315;SHT31;68596;52.080;4.662;2023-12-04T07:53:48;4.06;71.14
78315;SHT31;68596;52.080;4.662;2023-12-04T07:56:32;4.12;70.92
78315;SHT31;68596;52.080;4.662;2023-12-04T07:59:16;4.14;70.49
78315;SHT31;68596;52.080;4.662;2023-12-04T08:02:00;4.12;70.33
78315;SHT31;68596;52.080;4.662;2023-12-04T08:04:44;4.18;70.26
78315;SHT31;68596;52.080;4.662;2023-12-04T08:07:28;4.25;70.44
78315;SHT31;68596;52.080;4.662;2023-12-04T08:10:12;4.16;70.13
78315;SHT31;68596;52.080;4.662;2023-12-04T08:12:56;4.16;69.97
78315;SHT31;68596;52.080;4.662;2023-12-04T08:15:40;4.25;70.70
78315;SHT31;68596;52.080;4.662;2023-12-04T08:18:25;4.42;70.47
78315;SHT31;68596;52.080;4.662;2023-12-04T08:21:09;4.50;69.31
78315;SHT31;68596;52.080;4.662;2023-12-04T08:23:53;4.46;69.49
78315;SHT31;68596;52.080;4.662;2023-12-04T08:26:37;4.49;68.90
78315;SHT31;68596;52.080;4.662;2023-12-04T08:29:22;4.50;69.49
78315;SHT31;68596;52.080;4.662;2023-12-04T08:32:06;4.56;69.04
78315;SHT31;68596;52.080;4.662;2023-12-04T08:34:50;4.48;69.55
78315;SHT31;68596;52.080;4.662;2023-12-04T08:37:35;4.53;69.07
78315;SHT31;68596;52.080;4.662;2023-12-04T08:40:19;4.48;69.29
78315;SHT31;68596;52.080;4.662;2023-12-04T08:43:03;4.22;69.93
78315;SHT31;68596;52.080;4.662;2023-12-04T08:45:47;4.44;69.82
78315;SHT31;68596;52.080;4.662;2023-12-04T08:48:31;4.56;68.46
78315;SHT31;68596;52.080;4.662;2023-12-04T08:51:17;4.48;68.57
78315;SHT31;68596;52.080;4.662;2023-12-04T08:54:01;4.42;68.66
78315;SHT31;68596;52.080;4.662;2023-12-04T08:56:45;4.48;69.03
78315;SHT31;68596;52.080;4.662;2023-12-04T08:59:29;4.49;68.94
78315;SHT31;68596;52.080;4.662;2023-12-04T09:02:13;4.70;69.20
78315;SHT31;68596;52.080;4.662;2023-12-04T09:04:57;4.46;68.01
78315;SHT31;68596;52.080;4.662;2023-12-04T09:07:42;4.49;68.37
78315;SHT31;68596;52.080;4.662;2023-12-04T09:10:26;4.63;68.58
78315;SHT31;68596;52.080;4.662;2023-12-04T09:13:11;4.48;68.07
78315;SHT31;68596;52.080;4.662;2023-12-04T09:15:55;4.41;68.25
78315;SHT31;68596;52.080;4.662;2023-12-04T09:18:39;4.28;68.43
78315;SHT31;68596;52.080;4.662;2023-12-04T09:21:23;4.21;68.64
78315;SHT31;68596;52.080;4.662;2023-12-04T09:24:07;4.25;68.40
78315;SHT31;68596;52.080;4.662;2023-12-04T09:26:52;4.21;68.15
78315;SHT31;68596;52.080;4.662;2023-12-04T09:29:36;4.39;68.64
78315;SHT31;68596;52.080;4.662;2023-12-04T09:32:20;4.56;67.23
78315;SHT31;68596;52.080;4.662;2023-12-04T09:35:05;4.67;67.58
78315;SHT31;68596;52.080;4.662;2023-12-04T09:37:49;4.84;67.96
78315;SHT31;68596;52.080;4.662;2023-12-04T09:40:34;4.97;67.66
78315;SHT31;68596;52.080;4.662;2023-12-04T09:43:18;4.83;66.07
78315;SHT31;68596;52.080;4.662;2023-12-04T09:46:03;4.79;66.86
78315;SHT31;68596;52.080;4.662;2023-12-04T09:48:49;4.76;67.05
78315;SHT31;68596;52.080;4.662;2023-12-04T09:51:37;4.63;66.93
78315;SHT31;68596;52.080;4.662;2023-12-04T09:54:22;4.42;67.07
78315;SHT31;68596;52.080;4.662;2023-12-04T09:57:08;4.56;67.83
78315;SHT31;68596;52.080;4.662;2023-12-04T09:59:52;4.50;66.93
78315;SHT31;68596;52.080;4.662;2023-12-04T10:02:37;4.55;67.48
78315;SHT31;68596;52.080;4.662;2023-12-04T10:05:22;4.45;67.35
78315;SHT31;68596;52.080;4.662;2023-12-04T10:08:07;4.39;67.32
78315;SHT31;68596;52.080;4.662;2023-12-04T10:10:52;4.26;67.59
78315;SHT31;68596;52.080;4.662;2023-12-04T10:13:36;4.31;68.18
78315;SHT31;68596;52.080;4.662;2023-12-04T10:16:37;4.31;67.20
78315;SHT31;68596;52.080;4.662;2023-12-04T10:19:26;4.41;67.81
78315;SHT31;68596;52.080;4.662;2023-12-04T10:22:11;4.56;67.22
78315;SHT31;68596;52.080;4.662;2023-12-04T10:24:55;4.60;66.51
78315;SHT31;68596;52.080;4.662;2023-12-04T10:27:39;4.55;66.59
78315;SHT31;68596;52.080;4.662;2023-12-04T10:30:25;4.60;66.02
78315;SHT31;68596;52.080;4.662;2023-12-04T10:33:11;4.39;66.77
78315;SHT31;68596;52.080;4.662;2023-12-04T10:35:56;4.36;67.15
78315;SHT31;68596;52.080;4.662;2023-12-04T10:38:40;4.57;66.92
78315;SHT31;68596;52.080;4.662;2023-12-04T10:41:24;4.72;66.31
78315;SHT31;68596;52.080;4.662;2023-12-04T10:44:09;4.84;65.77
78315;SHT31;68596;52.080;4.662;2023-12-04T10:46:55;4.79;65.11
78315;SHT31;68596;52.080;4.662;2023-12-04T10:49:43;4.72;65.44
78315;SHT31;68596;52.080;4.662;2023-12-04T10:52:28;4.67;65.78
78315;SHT31;68596;52.080;4.662;2023-12-04T10:55:13;4.69;65.52
78315;SHT31;68596;52.080;4.662;2023-12-04T10:58:00;4.84;65.81
78315;SHT31;68596;52.080;4.662;2023-12-04T11:00:47;4.75;65.39
78315;SHT31;68596;52.080;4.662;2023-12-04T11:03:36;4.79;66.00
78315;SHT31;68596;52.080;4.662;2023-12-04T11:06:22;4.86;65.45
78315;SHT31;68596;52.080;4.662;2023-12-04T11:09:08;4.57;65.36
78315;SHT31;68596;52.080;4.662;2023-12-04T11:11:59;4.52;65.91
78315;SHT31;68596;52.080;4.662;2023-12-04T11:14:54;4.65;66.52
78315;SHT31;68596;52.080;4.662;2023-12-04T11:17:45;4.69;65.18
78315;SHT31;68596;52.080;4.662;2023-12-04T11:20:38;4.60;65.89
78315;SHT31;68596;52.080;4.662;2023-12-04T11:23:25;4.62;66.27
78315;SHT31;68596;52.080;4.662;2023-12-04T11:26:09;4.76;65.77
78315;SHT31;68596;52.080;4.662;2023-12-04T11:28:55;4.81;65.56
78315;SHT31;68596;52.080;4.662;2023-12-04T11:31:40;4.93;66.01
78315;SHT31;68596;52.080;4.662;2023-12-04T11:34:25;5.04;66.02
78315;SHT31;68596;52.080;4.662;2023-12-04T11:37:09;5.14;65.51
78315;SHT31;68596;52.080;4.662;2023-12-04T11:39:53;5.26;65.78
78315;SHT31;68596;52.080;4.662;2023-12-04T11:42:38;5.26;65.19
78315;SHT31;68596;52.080;4.662;2023-12-04T11:45:23;5.16;65.63
78315;SHT31;68596;52.080;4.662;2023-12-04T11:48:08;5.18;65.81
78315;SHT31;68596;52.080;4.662;2023-12-04T11:50:56;5.17;66.21
78315;SHT31;68596;52.080;4.662;2023-12-04T11:53:40;5.07;66.69
78315;SHT31;68596;52.080;4.662;2023-12-04T11:56:25;4.96;67.76
78315;SHT31;68596;52.080;4.662;2023-12-04T11:59:09;5.13;67.65
78315;SHT31;68596;52.080;4.662;2023-12-04T12:01:56;5.26;67.23
78315;SHT31;68596;52.080;4.662;2023-12-04T12:04:43;5.13;66.99
78315;SHT31;68596;52.080;4.662;2023-12-04T12:07:29;5.03;67.44
78315;SHT31;68596;52.080;4.662;2023-12-04T12:10:13;4.84;68.48
78315;SHT31;68596;52.080;4.662;2023-12-04T12:12:57;4.97;68.22
78315;SHT31;68596;52.080;4.662;2023-12-04T12:15:42;5.17;67.85
78315;SHT31;68596;52.080;4.662;2023-12-04T12:18:26;5.16;67.71
78315;SHT31;68596;52.080;4.662;2023-12-04T12:21:11;5.11;68.17
78315;SHT31;68596;52.080;4.662;2023-12-04T12:23:55;5.06;68.80
78315;SHT31;68596;52.080;4.662;2023-12-04T12:26:39;5.03;68.93
78315;SHT31;68596;52.080;4.662;2023-12-04T12:29:24;5.20;69.06
78315;SHT31;68596;52.080;4.662;2023-12-04T12:32:08;5.27;68.11
78315;SHT31;68596;52.080;4.662;2023-12-04T12:34:53;5.26;67.69
78315;SHT31;68596;52.080;4.662;2023-12-04T12:37:39;4.89;68.81
78315;SHT31;68596;52.080;4.662;2023-12-04T12:40:23;4.69;69.44
78315;SHT31;68596;52.080;4.662;2023-12-04T12:43:09;4.73;69.32
78315;SHT31;68596;52.080;4.662;2023-12-04T12:45:53;4.52;69.41
78315;SHT31;68596;52.080;4.662;2023-12-04T12:48:38;4.50;70.21
78315;SHT31;68596;52.080;4.662;2023-12-04T12:51:23;4.44;69.64
78315;SHT31;68596;52.080;4.662;2023-12-04T12:54:08;4.44;70.13
78315;SHT31;68596;52.080;4.662;2023-12-04T12:56:52;4.60;69.48
78315;SHT31;68596;52.080;4.662;2023-12-04T12:59:40;4.52;69.51
78315;SHT31;68596;52.080;4.662;2023-12-04T13:02:27;4.42;69.44
78315;SHT31;68596;52.080;4.662;2023-12-04T13:05:11;4.24;70.37
78315;SHT31;68596;52.080;4.662;2023-12-04T13:07:55;4.25;70.81
78315;SHT31;68596;52.080;4.662;2023-12-04T13:10:40;4.26;70.66
78315;SHT31;68596;52.080;4.662;2023-12-04T13:13:24;4.31;70.55
78315;SHT31;68596;52.080;4.662;2023-12-04T13:16:11;4.32;71.14
78315;SHT31;68596;52.080;4.662;2023-12-04T13:18:54;4.18;71.34
78315;SHT31;68596;52.080;4.662;2023-12-04T13:21:39;4.18;72.17
78315;SHT31;68596;52.080;4.662;2023-12-04T13:24:23;4.25;71.83
78315;SHT31;68596;52.080;4.662;2023-12-04T13:27:07;4.45;71.60
78315;SHT31;68596;52.080;4.662;2023-12-04T13:29:52;4.42;70.90
78315;SHT31;68596;52.080;4.662;2023-12-04T13:32:37;4.48;70.70
78315;SHT31;68596;52.080;4.662;2023-12-04T13:35:22;4.41;71.45
78315;SHT31;68596;52.080;4.662;2023-12-04T13:38:06;4.41;70.92
78315;SHT31;68596;52.080;4.662;2023-12-04T13:40:59;4.46;71.41
78315;SHT31;68596;52.080;4.662;2023-12-04T13:43:43;4.53;71.13
78315;SHT31;68596;52.080;4.662;2023-12-04T13:46:37;4.46;71.70
78315;SHT31;68596;52.080;4.662;2023-12-04T13:49:21;4.62;71.26
78315;SHT31;68596;52.080;4.662;2023-12-04T13:52:06;4.48;71.37
78315;SHT31;68596;52.080;4.662;2023-12-04T13:54:52;4.42;71.86
78315;SHT31;68596;52.080;4.662;2023-12-04T13:57:38;4.35;72.51
78315;SHT31;68596;52.080;4.662;2023-12-04T14:00:40;4.48;72.59
78315;SHT31;68596;52.080;4.662;2023-12-04T14:03:27;4.39;72.45
78315;SHT31;68596;52.080;4.662;2023-12-04T14:06:13;4.35;72.54
78315;SHT31;68596;52.080;4.662;2023-12-04T14:08:59;4.19;73.24
78315;SHT31;68596;52.080;4.662;2023-12-04T14:11:44;4.34;73.16
78315;SHT31;68596;52.080;4.662;2023-12-04T14:14:28;4.18;72.86
78315;SHT31;68596;52.080;4.662;2023-12-04T14:17:12;4.14;73.42
78315;SHT31;68596;52.080;4.662;2023-12-04T14:19:56;4.19;73.43
78315;SHT31;68596;52.080;4.662;2023-12-04T14:22:45;4.15;73.47
78315;SHT31;68596;52.080;4.662;2023-12-04T14:25:32;4.26;73.36
78315;SHT31;68596;52.080;4.662;2023-12-04T14:28:16;4.11;73.30
78315;SHT31;68596;52.080;4.662;2023-12-04T14:31:00;3.98;74.04
78315;SHT31;68596;52.080;4.662;2023-12-04T14:33:45;4.16;74.18
78315;SHT31;68596;52.080;4.662;2023-12-04T14:36:29;4.02;74.71
78315;SHT31;68596;52.080;4.662;2023-12-04T14:39:16;4.05;75.27
78315;SHT31;68596;52.080;4.662;2023-12-04T14:42:02;4.21;75.01
78315;SHT31;68596;52.080;4.662;2023-12-04T14:44:47;4.18;74.91
78315;SHT31;68596;52.080;4.662;2023-12-04T14:47:31;4.09;75.39
78315;SHT31;68596;52.080;4.662;2023-12-04T14:50:15;4.19;75.43
78315;SHT31;68596;52.080;4.662;2023-12-04T14:52:59;4.09;75.83
78315;SHT31;68596;52.080;4.662;2023-12-04T14:55:57;4.18;75.70
78315;SHT31;68596;52.080;4.662;2023-12-04T14:59:00;4.22;76.34
78315;SHT31;68596;52.080;4.662;2023-12-04T15:01:47;4.28;76.00
78315;SHT31;68596;52.080;4.662;2023-12-04T15:04:58;4.18;76.44
78315;SHT31;68596;52.080;4.662;2023-12-04T15:07:48;4.16;76.99
78315;SHT31;68596;52.080;4.662;2023-12-04T15:10:32;4.22;76.83
78315;SHT31;68596;52.080;4.662;2023-12-04T15:13:35;4.34;76.78
78315;SHT31;68596;52.080;4.662;2023-12-04T15:16:22;4.21;77.09
78315;SHT31;68596;52.080;4.662;2023-12-04T15:19:17;3.90;78.01
78315;SHT31;68596;52.080;4.662;2023-12-04T15:22:22;4.12;77.85
78315;SHT31;68596;52.080;4.662;2023-12-04T15:25:07;4.19;77.58
78315;SHT31;68596;52.080;4.662;2023-12-04T15:27:52;4.38;76.95
78315;SHT31;68596;52.080;4.662;2023-12-04T15:30:36;4.28;77.29
78315;SHT31;68596;52.080;4.662;2023-12-04T15:33:20;4.08;77.55
78315;SHT31;68596;52.080;4.662;2023-12-04T15:36:04;4.02;78.08
78315;SHT31;68596;52.080;4.662;2023-12-04T15:38:48;3.95;78.34
78315;SHT31;68596;52.080;4.662;2023-12-04T15:41:33;3.69;79.20
78315;SHT31;68596;52.080;4.662;2023-12-04T15:44:17;3.75;79.33
78315;SHT31;68596;52.080;4.662;2023-12-04T15:47:01;3.67;79.51
78315;SHT31;68596;52.080;4.662;2023-12-04T15:49:45;3.70;79.82
78315;SHT31;68596;52.080;4.662;2023-12-04T15:52:29;3.81;79.30
78315;SHT31;68596;52.080;4.662;2023-12-04T15:55:13;3.61;79.50
78315;SHT31;68596;52.080;4.662;2023-12-04T15:57:58;3.73;79.52
78315;SHT31;68596;52.080;4.662;2023-12-04T16:00:42;3.71;79.63
78315;SHT31;68596;52.080;4.662;2023-12-04T16:03:27;3.59;79.76
78315;SHT31;68596;52.080;4.662;2023-12-04T16:06:11;3.56;79.88
78315;SHT31;68596;52.080;4.662;2023-12-04T16:08:55;3.57;80.21
78315;SHT31;68596;52.080;4.662;2023-12-04T16:11:41;3.49;80.46
78315;SHT31;68596;52.080;4.662;2023-12-04T16:14:25;3.40;80.64
78315;SHT31;68596;52.080;4.662;2023-12-04T16:17:10;3.51;80.25
78315;SHT31;68596;52.080;4.662;2023-12-04T16:19:54;3.46;80.60
78315;SHT31;68596;52.080;4.662;2023-12-04T16:22:41;3.57;80.38
78315;SHT31;68596;52.080;4.662;2023-12-04T16:25:26;3.61;80.14
78315;SHT31;68596;52.080;4.662;2023-12-04T16:28:11;3.50;80.94
78315;SHT31;68596;52.080;4.662;2023-12-04T16:30:56;3.61;80.41
78315;SHT31;68596;52.080;4.662;2023-12-04T16:33:41;3.66;80.22
78315;SHT31;68596;52.080;4.662;2023-12-04T16:36:25;3.61;80.59
78315;SHT31;68596;52.080;4.662;2023-12-04T16:39:08;3.75;80.35
78315;SHT31;68596;52.080;4.662;2023-12-04T16:41:53;3.74;80.25
78315;SHT31;68596;52.080;4.662;2023-12-04T16:44:38;3.70;80.29
78315;SHT31;68596;52.080;4.662;2023-12-04T16:47:22;3.60;80.91
78315;SHT31;68596;52.080;4.662;2023-12-04T16:50:06;3.69;81.01
78315;SHT31;68596;52.080;4.662;2023-12-04T16:52:52;3.63;80.85
78315;SHT31;68596;52.080;4.662;2023-12-04T16:55:36;3.56;81.10
78315;SHT31;68596;52.080;4.662;2023-12-04T16:58:22;3.63;80.99
78315;SHT31;68596;52.080;4.662;2023-12-04T17:01:06;3.75;80.41
78315;SHT31;68596;52.080;4.662;2023-12-04T17:03:50;3.91;79.91
78315;SHT31;68596;52.080;4.662;2023-12-04T17:06:35;3.73;80.14
78315;SHT31;68596;52.080;4.662;2023-12-04T17:09:19;3.85;79.75
78315;SHT31;68596;52.080;4.662;2023-12-04T17:12:04;3.81;79.53
78315;SHT31;68596;52.080;4.662;2023-12-04T17:14:48;3.70;80.03
78315;SHT31;68596;52.080;4.662;2023-12-04T17:17:32;3.43;80.79
78315;SHT31;68596;52.080;4.662;2023-12-04T17:20:17;3.31;81.40
78315;SHT31;68596;52.080;4.662;2023-12-04T17:23:02;3.37;81.67
78315;SHT31;68596;52.080;4.662;2023-12-04T17:25:47;3.29;81.95
78315;SHT31;68596;52.080;4.662;2023-12-04T17:28:31;3.22;82.49
78315;SHT31;68596;52.080;4.662;2023-12-04T17:31:15;3.20;82.55
78315;SHT31;68596;52.080;4.662;2023-12-04T17:33:59;3.19;82.71
78315;SHT31;68596;52.080;4.662;2023-12-04T17:36:44;3.23;82.62
78315;SHT31;68596;52.080;4.662;2023-12-04T17:39:29;3.27;82.78